createdAt,value
2023-03-13T00:04:38.240Z,15.90
2023-03-13T00:09:41.680Z,10.20
2023-03-13T00:14:49.241Z,10.00
2023-03-13T00:19:52.730Z,10.23
2023-03-13T00:24:56.039Z,11.40
2023-03-13T00:30:00.993Z,15.83
2023-03-13T00:35:04.373Z,19.03
2023-03-13T00:40:09.299Z,9.33
2023-03-13T00:45:14.000Z,11.20
2023-03-13T00:50:22.601Z,18.00
2023-03-13T00:55:26.115Z,23.97
2023-03-13T01:00:31.112Z,6.20
2023-03-13T01:05:34.688Z,4.70
2023-03-13T01:10:37.993Z,14.70
2023-03-13T01:15:42.696Z,16.03
2023-03-13T01:20:46.018Z,12.77
2023-03-13T01:25:50.778Z,11.20
2023-03-13T01:30:55.787Z,8.57
2023-03-13T01:36:02.851Z,12.97
2023-03-13T01:41:07.501Z,11.90
2023-03-13T01:46:16.563Z,7.03
2023-03-13T01:51:30.764Z,15.00
2023-03-13T01:56:43.757Z,12.80
2023-03-13T02:01:52.874Z,16.70
2023-03-13T02:07:05.143Z,5.93
2023-03-13T02:12:33.823Z,14.03
2023-03-13T02:17:43.311Z,10.90
2023-03-13T02:22:51.437Z,7.30
2023-03-13T02:27:59.929Z,13.83
2023-03-13T02:33:05.752Z,11.10
2023-03-13T02:38:15.077Z,9.23
2023-03-13T02:43:25.996Z,10.90
2023-03-13T02:48:34.136Z,10.83
2023-03-13T02:53:39.140Z,12.47
2023-03-13T02:58:51.358Z,13.33
2023-03-13T03:03:58.986Z,11.67
2023-03-13T03:09:02.345Z,9.00
2023-03-13T03:14:11.163Z,10.37
2023-03-13T03:19:18.724Z,3.67
2023-03-13T03:24:22.172Z,22.23
2023-03-13T03:29:27.792Z,11.37
2023-03-13T03:34:32.477Z,16.43
2023-03-13T03:39:36.677Z,11.70
2023-03-13T03:44:42.829Z,6.97
2023-03-13T03:49:47.429Z,10.03
2023-03-13T03:54:51.895Z,14.73
2023-03-13T03:59:57.757Z,5.73
2023-03-13T04:05:01.529Z,10.97
2023-03-13T04:10:11.364Z,7.53
2023-03-13T04:15:22.391Z,10.60
2023-03-13T04:20:26.214Z,7.40
2023-03-13T04:25:30.079Z,10.07
2023-03-13T04:30:38.106Z,10.43
2023-03-13T04:35:59.782Z,3.00
2023-03-13T04:41:22.339Z,6.63
2023-03-13T04:47:05.915Z,12.30
2023-03-13T04:52:15.560Z,4.93
2023-03-13T04:57:41.860Z,10.23
2023-03-13T05:03:21.852Z,3.93
2023-03-13T05:08:37.299Z,8.67
2023-03-13T05:14:09.410Z,8.50
2023-03-13T05:19:33.843Z,1.97
2023-03-13T05:24:37.416Z,4.13
2023-03-13T05:30:04.698Z,1.00
2023-03-13T05:35:16.732Z,4.93
2023-03-13T05:40:42.022Z,5.43
2023-03-13T05:45:45.787Z,1.37
2023-03-13T05:51:03.206Z,0.40
2023-03-13T05:56:27.944Z,2.23
2023-03-13T06:01:54.097Z,1.37
2023-03-13T06:07:11.452Z,1.13
2023-03-13T06:12:14.981Z,0.80
2023-03-13T06:17:18.420Z,1.90
2023-03-13T06:22:23.270Z,3.50
2023-03-13T06:27:26.592Z,0.40
2023-03-13T06:32:30.156Z,1.37
2023-03-13T06:37:34.898Z,0.60
2023-03-13T06:42:38.302Z,0.70
2023-03-13T06:47:41.962Z,0.60
2023-03-13T06:52:47.892Z,2.13
2023-03-13T06:57:52.369Z,2.53
2023-03-13T07:02:55.666Z,1.77
2023-03-13T07:08:00.641Z,0.60
2023-03-13T07:13:05.612Z,0.70
2023-03-13T07:18:09.001Z,1.60
2023-03-13T07:23:13.838Z,0.50
2023-03-13T07:28:17.269Z,0.60
2023-03-13T07:33:20.904Z,2.10
2023-03-13T07:38:25.887Z,3.07
2023-03-13T07:43:29.499Z,0.33
2023-03-13T07:48:35.457Z,0.60
2023-03-13T07:53:40.096Z,0.40
2023-03-13T07:58:44.675Z,0.50
2023-03-13T08:03:51.242Z,0.70
2023-03-13T08:08:59.468Z,0.50
2023-03-13T08:14:03.239Z,0.30
2023-03-13T08:19:06.649Z,0.20
2023-03-13T08:24:13.494Z,0.60
2023-03-13T08:29:17.487Z,0.37
2023-03-13T08:34:21.321Z,0.27
2023-03-13T08:39:26.178Z,0.30
2023-03-13T08:44:30.152Z,0.50
2023-03-13T08:49:33.650Z,0.30
2023-03-13T08:54:38.372Z,0.40
2023-03-13T08:59:41.497Z,0.30
2023-03-13T09:04:44.683Z,0.30
2023-03-13T09:09:49.486Z,0.40
2023-03-13T09:14:53.689Z,0.40
2023-03-13T09:20:00.657Z,0.60
2023-03-13T09:25:06.801Z,2.10
2023-03-13T09:30:11.979Z,0.50
2023-03-13T09:35:15.878Z,6.80
2023-03-13T09:40:24.631Z,0.77
2023-03-13T09:45:34.250Z,0.60
2023-03-13T09:50:44.397Z,0.80
2023-03-13T09:55:50.360Z,0.67
2023-03-13T10:00:58.158Z,0.53
2023-03-13T10:06:05.993Z,1.13
2023-03-13T10:11:13.814Z,0.30
2023-03-13T10:16:21.756Z,0.27
2023-03-13T10:21:33.686Z,0.30
2023-03-13T10:26:39.079Z,0.90
2023-03-13T10:31:48.455Z,0.50
2023-03-13T10:36:56.851Z,0.50
2023-03-13T10:42:12.315Z,0.50
2023-03-13T10:47:17.365Z,0.33
2023-03-13T10:52:42.530Z,0.70
2023-03-13T10:57:57.600Z,0.40
2023-03-13T11:03:01.591Z,0.43
2023-03-13T11:08:30.407Z,2.50
2023-03-13T11:13:43.343Z,0.60
2023-03-13T11:19:04.130Z,0.50
2023-03-13T11:24:14.869Z,0.73
2023-03-13T11:29:28.537Z,0.90
2023-03-13T11:34:42.212Z,0.60
2023-03-13T11:39:56.508Z,0.77
2023-03-13T11:45:09.917Z,5.63
2023-03-13T11:50:21.581Z,3.53
2023-03-13T11:55:52.957Z,1.27
2023-03-13T12:01:01.801Z,0.83
2023-03-13T12:06:27.112Z,0.80
2023-03-13T12:11:38.254Z,1.10
2023-03-13T12:16:46.691Z,0.90
2023-03-13T12:21:53.968Z,0.70
2023-03-13T12:27:02.648Z,1.27
2023-03-13T12:32:14.284Z,0.87
2023-03-13T12:37:26.208Z,1.10
2023-03-13T12:42:44.424Z,1.00
2023-03-13T12:48:18.332Z,0.90
2023-03-13T12:53:36.943Z,1.10
2023-03-13T12:58:46.242Z,0.90
2023-03-13T13:04:00.105Z,1.80
2023-03-13T13:09:25.501Z,3.27
2023-03-13T13:15:07.329Z,0.63
2023-03-13T13:20:41.931Z,1.07
2023-03-13T13:25:47.003Z,2.43
2023-03-13T13:30:56.397Z,1.30
2023-03-13T13:36:41.298Z,0.70
2023-03-13T13:41:44.826Z,1.30
2023-03-13T13:46:48.600Z,1.20
2023-03-13T13:52:36.530Z,2.40
2023-03-13T13:57:41.043Z,1.17
2023-03-13T14:02:51.424Z,1.93
2023-03-13T14:08:04.723Z,1.00
2023-03-13T14:13:17.221Z,1.97
2023-03-13T14:18:24.246Z,3.80
2023-03-13T14:23:39.926Z,3.17
2023-03-13T14:28:45.402Z,2.57
2023-03-13T14:33:49.266Z,1.23
2023-03-13T14:38:56.287Z,1.60
2023-03-13T14:44:08.046Z,2.13
2023-03-13T14:49:18.936Z,1.77
2023-03-13T14:54:29.510Z,1.30
2023-03-13T14:59:33.464Z,1.83
2023-03-13T15:04:59.500Z,1.90
2023-03-13T15:10:19.887Z,1.50
2023-03-13T15:15:23.342Z,2.73
2023-03-13T15:20:29.028Z,1.83
2023-03-13T15:25:34.397Z,1.50
2023-03-13T15:30:38.164Z,2.23
2023-03-13T15:35:41.587Z,1.50
2023-03-13T15:40:50.014Z,1.80
2023-03-13T15:45:53.808Z,1.93
2023-03-13T15:50:59.609Z,1.53
2023-03-13T15:56:11.730Z,1.40
2023-03-13T16:01:17.190Z,1.33
2023-03-13T16:06:31.083Z,1.13
2023-03-13T16:11:35.976Z,2.20
2023-03-13T16:16:40.609Z,1.00
2023-03-13T16:21:48.611Z,1.10
2023-03-13T16:26:53.950Z,3.33
2023-03-13T16:31:57.373Z,1.40
2023-03-13T16:37:01.417Z,1.63
2023-03-13T16:42:06.644Z,1.07
2023-03-13T16:47:20.631Z,25.40
2023-03-13T16:52:24.293Z,71.37
2023-03-13T16:57:29.319Z,61.63
2023-03-13T17:09:45.739Z,2.87
2023-03-13T17:14:50.391Z,2.20
2023-03-13T17:19:55.977Z,3.60
2023-03-13T17:25:00.030Z,0.50
2023-03-13T17:30:07.449Z,0.73
2023-03-13T17:35:11.382Z,0.60
2023-03-13T17:40:21.633Z,0.93
2023-03-13T17:45:26.991Z,0.30
2023-03-13T17:50:31.366Z,0.40
2023-03-13T17:55:34.444Z,0.40
2023-03-13T18:00:45.139Z,0.30
2023-03-13T18:05:48.708Z,0.30
2023-03-13T18:10:52.395Z,0.50
2023-03-13T18:15:57.238Z,0.53
2023-03-13T18:21:00.709Z,0.30
2023-03-13T18:26:18.070Z,0.30
2023-03-13T18:31:23.666Z,0.83
2023-03-13T18:36:28.308Z,0.60
2023-03-13T18:41:32.137Z,1.03
2023-03-13T18:46:37.175Z,0.57
2023-03-13T18:51:42.107Z,1.27
2023-03-13T18:56:46.116Z,0.50
2023-03-13T19:01:51.477Z,0.60
2023-03-13T19:06:54.653Z,0.80
2023-03-13T19:11:58.735Z,1.40
2023-03-13T19:17:06.051Z,2.33
2023-03-13T19:22:14.269Z,0.80
2023-03-13T19:27:18.092Z,0.60
2023-03-13T19:32:23.653Z,0.60
2023-03-13T19:37:28.329Z,1.93
2023-03-13T19:42:31.610Z,1.03
2023-03-13T19:47:38.251Z,0.90
2023-03-13T19:52:42.466Z,0.60
2023-03-13T19:57:46.172Z,0.50
2023-03-13T20:02:52.329Z,0.70
2023-03-13T20:07:55.910Z,0.67
2023-03-13T20:12:59.287Z,0.70
2023-03-13T20:18:04.633Z,0.60
2023-03-13T20:23:08.546Z,1.13
2023-03-13T20:28:11.981Z,0.60
2023-03-13T20:33:16.974Z,1.03
2023-03-13T20:38:20.536Z,5.73
2023-03-13T20:43:24.545Z,0.77
2023-03-13T20:48:30.026Z,0.53
2023-03-13T20:53:36.409Z,0.73
2023-03-13T20:58:40.293Z,0.80
2023-03-13T21:03:44.826Z,3.30
2023-03-13T21:08:48.869Z,0.50
2023-03-13T21:13:52.527Z,0.50
2023-03-13T21:18:57.343Z,0.40
2023-03-13T21:24:00.565Z,0.50
2023-03-13T21:29:04.038Z,1.13
2023-03-13T21:34:08.675Z,0.57
2023-03-13T21:39:12.464Z,0.30
2023-03-13T21:44:19.565Z,0.60
2023-03-13T21:49:24.476Z,0.50
2023-03-13T21:54:27.774Z,0.30
2023-03-13T21:59:31.936Z,0.40
2023-03-13T22:04:36.437Z,0.70
2023-03-13T22:09:39.494Z,0.30
2023-03-13T22:14:42.719Z,0.30
2023-03-13T22:19:47.575Z,0.77
2023-03-13T22:24:50.819Z,0.30
2023-03-13T22:29:54.108Z,0.30
2023-03-13T22:34:58.692Z,0.30
2023-03-13T22:40:01.941Z,0.60
2023-03-13T22:45:06.015Z,0.30
2023-03-13T22:50:12.285Z,0.60
2023-03-13T22:55:15.432Z,4.57
2023-03-13T23:00:19.378Z,0.60
2023-03-13T23:05:23.902Z,0.70
2023-03-13T23:10:27.105Z,1.13
2023-03-13T23:15:42.960Z,0.53
2023-03-13T23:20:55.296Z,0.60
2023-03-13T23:26:00.169Z,1.03
2023-03-13T23:31:10.195Z,0.40
2023-03-13T23:36:17.335Z,0.53
2023-03-13T23:41:21.394Z,0.40
2023-03-13T23:46:26.941Z,0.30
2023-03-13T23:51:31.539Z,0.40
2023-03-13T23:56:34.714Z,0.40
